sensor_id;sensor_type;location;lat;lon;timestamp;P1;durP1;ratioP1;P2;durP2;ratioP2
27957;SDS011;15295;42.658;23.374;2023-01-15T00:00:00;32.20;;;17.00;;
27957;SDS011;15295;42.658;23.374;2023-01-15T00:02:25;31.83;;;15.25;;
27957;SDS011;15295;42.658;23.374;2023-01-15T00:04:51;32.08;;;16.75;;
27957;SDS011;15295;42.658;23.374;2023-01-15T00:07:16;29.80;;;15.02;;
27957;SDS011;15295;42.658;23.374;2023-01-15T00:09:42;35.50;;;17.73;;
27957;SDS011;15295;42.658;23.374;2023-01-15T00:12:07;28.45;;;15.52;;
27957;SDS011;15295;42.658;23.374;2023-01-15T00:14:33;33.38;;;16.50;;
27957;SDS011;15295;42.658;23.374;2023-01-15T00:16:58;29.95;;;16.13;;
27957;SDS011;15295;42.658;23.374;2023-01-15T00:19:23;31.90;;;15.57;;
27957;SDS011;15295;42.658;23.374;2023-01-15T00:21:49;28.27;;;15.95;;
27957;SDS011;15295;42.658;23.374;2023-01-15T00:24:14;29.40;;;16.30;;
27957;SDS011;15295;42.658;23.374;2023-01-15T00:26:58;31.90;;;16.20;;
27957;SDS011;15295;42.658;23.374;2023-01-15T00:29:42;27.63;;;15.30;;
27957;SDS011;15295;42.658;23.374;2023-01-15T00:32:07;28.35;;;15.27;;
27957;SDS011;15295;42.658;23.374;2023-01-15T00:34:33;30.23;;;15.23;;
27957;SDS011;15295;42.658;23.374;2023-01-15T00:36:59;30.70;;;15.65;;
27957;SDS011;15295;42.658;23.374;2023-01-15T00:39:25;31.67;;;16.38;;
27957;SDS011;15295;42.658;23.374;2023-01-15T00:41:51;29.95;;;15.15;;
27957;SDS011;15295;42.658;23.374;2023-01-15T00:44:21;31.95;;;15.35;;
27957;SDS011;15295;42.658;23.374;2023-01-15T00:46:52;27.05;;;14.95;;
27957;SDS011;15295;42.658;23.374;2023-01-15T00:49:21;26.83;;;14.00;;
27957;SDS011;15295;42.658;23.374;2023-01-15T00:51:47;31.75;;;15.23;;
27957;SDS011;15295;42.658;23.374;2023-01-15T00:54:14;28.05;;;14.75;;
27957;SDS011;15295;42.658;23.374;2023-01-15T00:56:43;25.23;;;13.38;;
27957;SDS011;15295;42.658;23.374;2023-01-15T00:59:09;24.23;;;13.40;;
27957;SDS011;15295;42.658;23.374;2023-01-15T01:01:35;31.15;;;15.10;;
27957;SDS011;15295;42.658;23.374;2023-01-15T01:04:02;27.15;;;15.23;;
27957;SDS011;15295;42.658;23.374;2023-01-15T01:06:28;26.92;;;14.35;;
27957;SDS011;15295;42.658;23.374;2023-01-15T01:08:54;28.08;;;15.18;;
27957;SDS011;15295;42.658;23.374;2023-01-15T01:11:22;29.02;;;14.65;;
27957;SDS011;15295;42.658;23.374;2023-01-15T01:13:51;25.80;;;13.70;;
27957;SDS011;15295;42.658;23.374;2023-01-15T01:16:36;26.90;;;15.10;;
27957;SDS011;15295;42.658;23.374;2023-01-15T01:19:09;21.67;;;13.38;;
27957;SDS011;15295;42.658;23.374;2023-01-15T01:21:37;21.98;;;12.70;;
27957;SDS011;15295;42.658;23.374;2023-01-15T01:24:05;26.83;;;14.05;;
27957;SDS011;15295;42.658;23.374;2023-01-15T01:26:33;25.13;;;13.70;;
27957;SDS011;15295;42.658;23.374;2023-01-15T01:29:00;25.88;;;11.88;;
27957;SDS011;15295;42.658;23.374;2023-01-15T01:31:33;20.67;;;11.95;;
27957;SDS011;15295;42.658;23.374;2023-01-15T01:33:58;23.70;;;13.32;;
27957;SDS011;15295;42.658;23.374;2023-01-15T01:36:28;33.00;;;15.15;;
27957;SDS011;15295;42.658;23.374;2023-01-15T01:39:13;27.90;;;14.63;;
27957;SDS011;15295;42.658;23.374;2023-01-15T01:41:40;31.85;;;15.32;;
27957;SDS011;15295;42.658;23.374;2023-01-15T01:44:07;30.77;;;15.45;;
27957;SDS011;15295;42.658;23.374;2023-01-15T01:46:54;28.65;;;15.13;;
27957;SDS011;15295;42.658;23.374;2023-01-15T01:49:22;29.00;;;15.65;;
27957;SDS011;15295;42.658;23.374;2023-01-15T01:51:55;28.70;;;15.05;;
27957;SDS011;15295;42.658;23.374;2023-01-15T01:54:26;29.17;;;15.27;;
27957;SDS011;15295;42.658;23.374;2023-01-15T01:56:56;30.30;;;14.98;;
27957;SDS011;15295;42.658;23.374;2023-01-15T01:59:25;26.38;;;14.90;;
27957;SDS011;15295;42.658;23.374;2023-01-15T02:01:51;26.45;;;14.32;;
27957;SDS011;15295;42.658;23.374;2023-01-15T02:04:17;27.00;;;13.63;;
27957;SDS011;15295;42.658;23.374;2023-01-15T02:06:46;26.40;;;12.82;;
27957;SDS011;15295;42.658;23.374;2023-01-15T02:09:16;25.98;;;13.85;;
27957;SDS011;15295;42.658;23.374;2023-01-15T02:11:41;28.92;;;15.07;;
27957;SDS011;15295;42.658;23.374;2023-01-15T02:14:15;29.27;;;14.55;;
27957;SDS011;15295;42.658;23.374;2023-01-15T02:16:53;29.85;;;15.40;;
27957;SDS011;15295;42.658;23.374;2023-01-15T02:22:18;31.60;;;15.60;;
27957;SDS011;15295;42.658;23.374;2023-01-15T02:25:11;30.40;;;15.70;;
27957;SDS011;15295;42.658;23.374;2023-01-15T02:27:50;36.30;;;16.95;;
27957;SDS011;15295;42.658;23.374;2023-01-15T02:30:33;34.38;;;16.63;;
27957;SDS011;15295;42.658;23.374;2023-01-15T02:33:14;31.25;;;16.05;;
27957;SDS011;15295;42.658;23.374;2023-01-15T02:35:55;33.13;;;16.58;;
27957;SDS011;15295;42.658;23.374;2023-01-15T02:38:26;34.58;;;17.85;;
27957;SDS011;15295;42.658;23.374;2023-01-15T02:40:56;32.97;;;16.75;;
27957;SDS011;15295;42.658;23.374;2023-01-15T02:43:25;35.03;;;18.48;;
27957;SDS011;15295;42.658;23.374;2023-01-15T02:45:54;32.33;;;16.83;;
27957;SDS011;15295;42.658;23.374;2023-01-15T02:48:25;35.40;;;18.08;;
27957;SDS011;15295;42.658;23.374;2023-01-15T02:51:18;34.38;;;16.67;;
27957;SDS011;15295;42.658;23.374;2023-01-15T02:53:47;34.38;;;17.55;;
27957;SDS011;15295;42.658;23.374;2023-01-15T02:56:19;36.22;;;17.77;;
27957;SDS011;15295;42.658;23.374;2023-01-15T02:58:50;31.98;;;17.23;;
27957;SDS011;15295;42.658;23.374;2023-01-15T03:01:21;34.15;;;17.30;;
27957;SDS011;15295;42.658;23.374;2023-01-15T03:03:53;35.60;;;17.38;;
27957;SDS011;15295;42.658;23.374;2023-01-15T03:06:45;36.25;;;19.05;;
27957;SDS011;15295;42.658;23.374;2023-01-15T03:09:31;34.35;;;17.33;;
27957;SDS011;15295;42.658;23.374;2023-01-15T03:18:08;38.33;;;18.02;;
27957;SDS011;15295;42.658;23.374;2023-01-15T03:20:41;35.53;;;17.08;;
27957;SDS011;15295;42.658;23.374;2023-01-15T03:23:11;33.65;;;16.92;;
27957;SDS011;15295;42.658;23.374;2023-01-15T03:25:41;35.65;;;17.80;;
27957;SDS011;15295;42.658;23.374;2023-01-15T03:28:13;35.22;;;18.02;;
27957;SDS011;15295;42.658;23.374;2023-01-15T03:30:41;34.88;;;17.33;;
27957;SDS011;15295;42.658;23.374;2023-01-15T03:33:08;37.10;;;18.48;;
27957;SDS011;15295;42.658;23.374;2023-01-15T03:35:55;36.38;;;17.08;;
27957;SDS011;15295;42.658;23.374;2023-01-15T03:38:34;38.28;;;17.88;;
27957;SDS011;15295;42.658;23.374;2023-01-15T03:41:17;31.95;;;16.50;;
27957;SDS011;15295;42.658;23.374;2023-01-15T03:49:46;30.40;;;16.52;;
27957;SDS011;15295;42.658;23.374;2023-01-15T04:00:18;31.02;;;15.95;;
27957;SDS011;15295;42.658;23.374;2023-01-15T04:02:49;32.30;;;16.10;;
27957;SDS011;15295;42.658;23.374;2023-01-15T04:05:20;27.50;;;14.70;;
27957;SDS011;15295;42.658;23.374;2023-01-15T04:07:46;29.83;;;15.10;;
27957;SDS011;15295;42.658;23.374;2023-01-15T04:10:14;29.52;;;15.07;;
27957;SDS011;15295;42.658;23.374;2023-01-15T04:12:40;29.58;;;14.63;;
27957;SDS011;15295;42.658;23.374;2023-01-15T04:15:06;29.27;;;14.23;;
27957;SDS011;15295;42.658;23.374;2023-01-15T04:17:32;26.92;;;15.48;;
27957;SDS011;15295;42.658;23.374;2023-01-15T04:19:57;30.75;;;14.98;;
27957;SDS011;15295;42.658;23.374;2023-01-15T04:22:23;28.13;;;15.38;;
27957;SDS011;15295;42.658;23.374;2023-01-15T04:24:48;29.75;;;14.82;;
27957;SDS011;15295;42.658;23.374;2023-01-15T04:27:14;29.95;;;14.48;;
27957;SDS011;15295;42.658;23.374;2023-01-15T04:29:41;27.35;;;14.02;;
27957;SDS011;15295;42.658;23.374;2023-01-15T04:32:06;22.75;;;13.00;;
27957;SDS011;15295;42.658;23.374;2023-01-15T04:34:32;23.90;;;12.77;;
27957;SDS011;15295;42.658;23.374;2023-01-15T04:37:01;24.42;;;13.25;;
27957;SDS011;15295;42.658;23.374;2023-01-15T04:39:26;23.02;;;12.93;;
27957;SDS011;15295;42.658;23.374;2023-01-15T04:41:52;24.80;;;13.93;;
27957;SDS011;15295;42.658;23.374;2023-01-15T04:44:36;26.42;;;12.85;;
27957;SDS011;15295;42.658;23.374;2023-01-15T04:47:02;24.52;;;13.40;;
27957;SDS011;15295;42.658;23.374;2023-01-15T04:49:27;25.80;;;13.32;;
27957;SDS011;15295;42.658;23.374;2023-01-15T04:51:54;24.90;;;13.57;;
27957;SDS011;15295;42.658;23.374;2023-01-15T04:54:20;25.67;;;13.13;;
27957;SDS011;15295;42.658;23.374;2023-01-15T04:56:47;21.70;;;11.80;;
27957;SDS011;15295;42.658;23.374;2023-01-15T04:59:15;23.35;;;12.05;;
27957;SDS011;15295;42.658;23.374;2023-01-15T05:01:44;24.85;;;12.50;;
27957;SDS011;15295;42.658;23.374;2023-01-15T05:04:10;18.67;;;10.35;;
27957;SDS011;15295;42.658;23.374;2023-01-15T05:06:36;21.15;;;11.15;;
27957;SDS011;15295;42.658;23.374;2023-01-15T05:09:02;20.80;;;11.13;;
27957;SDS011;15295;42.658;23.374;2023-01-15T05:11:30;28.20;;;12.80;;
27957;SDS011;15295;42.658;23.374;2023-01-15T05:13:55;29.85;;;15.40;;
27957;SDS011;15295;42.658;23.374;2023-01-15T05:16:22;31.05;;;16.30;;
27957;SDS011;15295;42.658;23.374;2023-01-15T05:18:51;39.72;;;19.10;;
27957;SDS011;15295;42.658;23.374;2023-01-15T05:21:23;42.72;;;19.02;;
27957;SDS011;15295;42.658;23.374;2023-01-15T05:23:50;38.20;;;19.55;;
27957;SDS011;15295;42.658;23.374;2023-01-15T05:26:20;40.05;;;19.88;;
27957;SDS011;15295;42.658;23.374;2023-01-15T05:28:46;38.65;;;19.10;;
27957;SDS011;15295;42.658;23.374;2023-01-15T05:31:14;42.42;;;21.02;;
27957;SDS011;15295;42.658;23.374;2023-01-15T05:33:41;40.67;;;19.75;;
27957;SDS011;15295;42.658;23.374;2023-01-15T05:36:11;44.67;;;20.58;;
27957;SDS011;15295;42.658;23.374;2023-01-15T05:38:44;35.90;;;18.90;;
27957;SDS011;15295;42.658;23.374;2023-01-15T05:41:11;41.80;;;21.63;;
27957;SDS011;15295;42.658;23.374;2023-01-15T05:43:59;38.03;;;18.55;;
27957;SDS011;15295;42.658;23.374;2023-01-15T05:46:25;36.45;;;17.58;;
27957;SDS011;15295;42.658;23.374;2023-01-15T05:48:51;38.85;;;18.73;;
27957;SDS011;15295;42.658;23.374;2023-01-15T05:51:17;37.70;;;18.15;;
27957;SDS011;15295;42.658;23.374;2023-01-15T05:53:42;36.88;;;18.13;;
27957;SDS011;15295;42.658;23.374;2023-01-15T05:56:08;34.30;;;18.23;;
27957;SDS011;15295;42.658;23.374;2023-01-15T05:58:34;35.50;;;16.83;;
27957;SDS011;15295;42.658;23.374;2023-01-15T06:01:04;34.88;;;17.30;;
27957;SDS011;15295;42.658;23.374;2023-01-15T06:03:30;38.38;;;18.10;;
27957;SDS011;15295;42.658;23.374;2023-01-15T06:05:57;40.70;;;18.75;;
27957;SDS011;15295;42.658;23.374;2023-01-15T06:08:23;35.35;;;17.52;;
27957;SDS011;15295;42.658;23.374;2023-01-15T06:10:49;33.53;;;16.30;;
27957;SDS011;15295;42.658;23.374;2023-01-15T06:13:15;34.85;;;18.20;;
27957;SDS011;15295;42.658;23.374;2023-01-15T06:15:41;35.53;;;18.23;;
27957;SDS011;15295;42.658;23.374;2023-01-15T06:18:07;28.75;;;15.70;;
27957;SDS011;15295;42.658;23.374;2023-01-15T06:20:40;31.83;;;16.38;;
27957;SDS011;15295;42.658;23.374;2023-01-15T06:23:08;25.53;;;13.63;;
27957;SDS011;15295;42.658;23.374;2023-01-15T06:25:33;28.38;;;14.73;;
27957;SDS011;15295;42.658;23.374;2023-01-15T06:28:01;26.30;;;14.18;;
27957;SDS011;15295;42.658;23.374;2023-01-15T06:30:31;27.55;;;13.35;;
27957;SDS011;15295;42.658;23.374;2023-01-15T06:32:57;29.98;;;13.63;;
27957;SDS011;15295;42.658;23.374;2023-01-15T06:35:22;29.63;;;13.88;;
27957;SDS011;15295;42.658;23.374;2023-01-15T06:37:48;22.00;;;11.80;;
27957;SDS011;15295;42.658;23.374;2023-01-15T06:40:14;22.05;;;12.10;;
27957;SDS011;15295;42.658;23.374;2023-01-15T06:42:40;23.27;;;12.32;;
27957;SDS011;15295;42.658;23.374;2023-01-15T06:45:24;24.73;;;13.10;;
27957;SDS011;15295;42.658;23.374;2023-01-15T06:48:08;25.65;;;12.30;;
27957;SDS011;15295;42.658;23.374;2023-01-15T06:50:33;29.88;;;12.75;;
27957;SDS011;15295;42.658;23.374;2023-01-15T06:52:59;25.70;;;12.02;;
27957;SDS011;15295;42.658;23.374;2023-01-15T06:55:24;24.77;;;12.25;;
27957;SDS011;15295;42.658;23.374;2023-01-15T06:57:50;23.10;;;12.88;;
27957;SDS011;15295;42.658;23.374;2023-01-15T07:00:15;23.45;;;13.52;;
27957;SDS011;15295;42.658;23.374;2023-01-15T07:02:41;26.23;;;14.27;;
27957;SDS011;15295;42.658;23.374;2023-01-15T07:05:06;27.00;;;15.23;;
27957;SDS011;15295;42.658;23.374;2023-01-15T07:07:32;31.35;;;16.70;;
27957;SDS011;15295;42.658;23.374;2023-01-15T07:09:58;30.05;;;15.45;;
27957;SDS011;15295;42.658;23.374;2023-01-15T07:12:24;33.88;;;16.73;;
27957;SDS011;15295;42.658;23.374;2023-01-15T07:14:50;35.90;;;17.98;;
27957;SDS011;15295;42.658;23.374;2023-01-15T07:17:15;38.63;;;19.60;;
27957;SDS011;15295;42.658;23.374;2023-01-15T07:19:41;37.70;;;20.45;;
27957;SDS011;15295;42.658;23.374;2023-01-15T07:22:08;39.42;;;19.83;;
27957;SDS011;15295;42.658;23.374;2023-01-15T07:24:34;35.00;;;17.05;;
27957;SDS011;15295;42.658;23.374;2023-01-15T07:27:00;31.67;;;16.33;;
27957;SDS011;15295;42.658;23.374;2023-01-15T07:29:27;30.30;;;14.75;;
27957;SDS011;15295;42.658;23.374;2023-01-15T07:31:52;31.38;;;15.00;;
27957;SDS011;15295;42.658;23.374;2023-01-15T07:34:18;32.17;;;17.02;;
27957;SDS011;15295;42.658;23.374;2023-01-15T07:36:44;37.63;;;17.10;;
27957;SDS011;15295;42.658;23.374;2023-01-15T07:39:11;27.70;;;14.77;;
27957;SDS011;15295;42.658;23.374;2023-01-15T07:41:38;32.72;;;17.15;;
27957;SDS011;15295;42.658;23.374;2023-01-15T07:44:22;24.98;;;12.70;;
27957;SDS011;15295;42.658;23.374;2023-01-15T07:47:17;31.73;;;16.63;;
27957;SDS011;15295;42.658;23.374;2023-01-15T07:50:07;37.67;;;17.98;;
27957;SDS011;15295;42.658;23.374;2023-01-15T07:52:41;35.72;;;19.55;;
27957;SDS011;15295;42.658;23.374;2023-01-15T07:55:07;31.58;;;18.17;;
27957;SDS011;15295;42.658;23.374;2023-01-15T07:57:37;39.95;;;19.33;;
27957;SDS011;15295;42.658;23.374;2023-01-15T08:00:03;39.03;;;20.52;;
27957;SDS011;15295;42.658;23.374;2023-01-15T08:02:30;37.97;;;18.83;;
27957;SDS011;15295;42.658;23.374;2023-01-15T08:04:56;39.88;;;20.00;;
27957;SDS011;15295;42.658;23.374;2023-01-15T08:07:21;48.55;;;22.55;;
27957;SDS011;15295;42.658;23.374;2023-01-15T08:09:46;39.58;;;21.70;;
27957;SDS011;15295;42.658;23.374;2023-01-15T08:12:12;44.33;;;22.42;;
27957;SDS011;15295;42.658;23.374;2023-01-15T08:14:56;38.00;;;20.77;;
27957;SDS011;15295;42.658;23.374;2023-01-15T08:17:44;48.92;;;21.75;;
27957;SDS011;15295;42.658;23.374;2023-01-15T08:20:19;49.33;;;25.17;;
27957;SDS011;15295;42.658;23.374;2023-01-15T08:22:46;58.70;;;29.25;;
27957;SDS011;15295;42.658;23.374;2023-01-15T08:25:22;41.95;;;22.80;;
27957;SDS011;15295;42.658;23.374;2023-01-15T08:27:51;120.93;;;51.67;;
27957;SDS011;15295;42.658;23.374;2023-01-15T08:30:18;73.88;;;34.70;;
27957;SDS011;15295;42.658;23.374;2023-01-15T08:32:45;38.45;;;21.25;;
27957;SDS011;15295;42.658;23.374;2023-01-15T08:35:11;44.47;;;22.80;;
27957;SDS011;15295;42.658;23.374;2023-01-15T08:37:37;47.58;;;21.80;;
27957;SDS011;15295;42.658;23.374;2023-01-15T08:40:05;42.08;;;22.75;;
27957;SDS011;15295;42.658;23.374;2023-01-15T08:42:33;44.20;;;24.17;;
27957;SDS011;15295;42.658;23.374;2023-01-15T08:45:00;38.78;;;21.00;;
27957;SDS011;15295;42.658;23.374;2023-01-15T08:47:25;35.20;;;19.35;;
27957;SDS011;15295;42.658;23.374;2023-01-15T08:55:45;37.58;;;20.42;;
27957;SDS011;15295;42.658;23.374;2023-01-15T09:01:22;38.25;;;20.30;;
27957;SDS011;15295;42.658;23.374;2023-01-15T09:04:36;36.75;;;18.92;;
27957;SDS011;15295;42.658;23.374;2023-01-15T09:12:35;32.65;;;17.55;;
27957;SDS011;15295;42.658;23.374;2023-01-15T09:15:01;36.03;;;18.63;;
27957;SDS011;15295;42.658;23.374;2023-01-15T09:17:26;36.58;;;18.33;;
27957;SDS011;15295;42.658;23.374;2023-01-15T09:20:25;50.38;;;25.67;;
27957;SDS011;15295;42.658;23.374;2023-01-15T09:23:16;30.92;;;17.83;;
27957;SDS011;15295;42.658;23.374;2023-01-15T09:33:28;37.42;;;20.02;;
27957;SDS011;15295;42.658;23.374;2023-01-15T09:35:56;37.50;;;19.05;;
27957;SDS011;15295;42.658;23.374;2023-01-15T09:38:21;38.33;;;19.85;;
27957;SDS011;15295;42.658;23.374;2023-01-15T09:40:48;41.92;;;20.13;;
27957;SDS011;15295;42.658;23.374;2023-01-15T09:46:46;38.15;;;21.00;;
27957;SDS011;15295;42.658;23.374;2023-01-15T09:49:26;37.22;;;19.50;;
27957;SDS011;15295;42.658;23.374;2023-01-15T09:55:02;34.22;;;19.15;;
27957;SDS011;15295;42.658;23.374;2023-01-15T09:57:37;33.60;;;19.00;;
27957;SDS011;15295;42.658;23.374;2023-01-15T10:00:05;37.35;;;19.90;;
27957;SDS011;15295;42.658;23.374;2023-01-15T10:02:42;35.20;;;19.30;;
27957;SDS011;15295;42.658;23.374;2023-01-15T10:05:35;56.55;;;19.95;;
27957;SDS011;15295;42.658;23.374;2023-01-15T10:09:03;30.73;;;17.73;;
27957;SDS011;15295;42.658;23.374;2023-01-15T10:12:16;35.03;;;18.17;;
27957;SDS011;15295;42.658;23.374;2023-01-15T10:15:15;38.63;;;18.55;;
27957;SDS011;15295;42.658;23.374;2023-01-15T10:17:51;35.88;;;18.30;;
27957;SDS011;15295;42.658;23.374;2023-01-15T10:23:47;35.42;;;18.98;;
27957;SDS011;15295;42.658;23.374;2023-01-15T10:37:53;25.85;;;14.63;;
27957;SDS011;15295;42.658;23.374;2023-01-15T10:46:32;34.45;;;18.05;;
27957;SDS011;15295;42.658;23.374;2023-01-15T10:49:20;37.00;;;21.15;;
27957;SDS011;15295;42.658;23.374;2023-01-15T10:51:53;38.92;;;19.55;;
27957;SDS011;15295;42.658;23.374;2023-01-15T10:54:23;33.22;;;19.42;;
27957;SDS011;15295;42.658;23.374;2023-01-15T10:57:16;34.83;;;19.45;;
27957;SDS011;15295;42.658;23.374;2023-01-15T10:59:57;31.63;;;17.60;;
27957;SDS011;15295;42.658;23.374;2023-01-15T11:05:05;36.08;;;17.73;;
27957;SDS011;15295;42.658;23.374;2023-01-15T11:07:42;31.17;;;17.05;;
27957;SDS011;15295;42.658;23.374;2023-01-15T11:13:22;32.70;;;17.25;;
27957;SDS011;15295;42.658;23.374;2023-01-15T11:18:45;34.47;;;18.65;;
27957;SDS011;15295;42.658;23.374;2023-01-15T11:21:29;32.75;;;17.40;;
27957;SDS011;15295;42.658;23.374;2023-01-15T11:24:02;26.83;;;16.00;;
27957;SDS011;15295;42.658;23.374;2023-01-15T11:29:10;29.52;;;16.20;;
27957;SDS011;15295;42.658;23.374;2023-01-15T11:31:41;32.60;;;17.60;;
27957;SDS011;15295;42.658;23.374;2023-01-15T11:34:15;28.42;;;15.73;;
27957;SDS011;15295;42.658;23.374;2023-01-15T11:36:46;29.95;;;16.20;;
27957;SDS011;15295;42.658;23.374;2023-01-15T12:05:04;21.30;;;12.85;;
27957;SDS011;15295;42.658;23.374;2023-01-15T12:11:36;53.60;;;23.80;;
27957;SDS011;15295;42.658;23.374;2023-01-15T12:29:03;21.77;;;10.82;;
27957;SDS011;15295;42.658;23.374;2023-01-15T12:34:22;15.82;;;9.85;;
27957;SDS011;15295;42.658;23.374;2023-01-15T12:37:41;15.70;;;9.30;;
27957;SDS011;15295;42.658;23.374;2023-01-15T12:40:27;16.40;;;9.48;;
27957;SDS011;15295;42.658;23.374;2023-01-15T12:43:02;14.10;;;9.45;;
27957;SDS011;15295;42.658;23.374;2023-01-15T12:45:56;14.40;;;10.10;;
27957;SDS011;15295;42.658;23.374;2023-01-15T12:48:44;12.80;;;9.40;;
27957;SDS011;15295;42.658;23.374;2023-01-15T12:51:40;13.40;;;8.13;;
27957;SDS011;15295;42.658;23.374;2023-01-15T12:54:10;16.08;;;9.68;;
27957;SDS011;15295;42.658;23.374;2023-01-15T12:56:59;13.15;;;8.82;;
27957;SDS011;15295;42.658;23.374;2023-01-15T13:04:38;15.88;;;10.43;;
27957;SDS011;15295;42.658;23.374;2023-01-15T13:10:18;20.33;;;12.40;;
27957;SDS011;15295;42.658;23.374;2023-01-15T13:12:46;21.52;;;10.98;;
27957;SDS011;15295;42.658;23.374;2023-01-15T13:15:13;18.98;;;11.02;;
27957;SDS011;15295;42.658;23.374;2023-01-15T13:20:47;17.45;;;10.38;;
27957;SDS011;15295;42.658;23.374;2023-01-15T13:34:54;17.30;;;9.68;;
27957;SDS011;15295;42.658;23.374;2023-01-15T13:37:35;17.45;;;11.27;;
27957;SDS011;15295;42.658;23.374;2023-01-15T13:43:04;18.30;;;11.60;;
27957;SDS011;15295;42.658;23.374;2023-01-15T13:45:35;20.48;;;12.40;;
27957;SDS011;15295;42.658;23.374;2023-01-15T13:48:20;18.70;;;11.68;;
27957;SDS011;15295;42.658;23.374;2023-01-15T13:50:54;21.98;;;11.90;;
27957;SDS011;15295;42.658;23.374;2023-01-15T13:53:33;20.05;;;13.07;;
27957;SDS011;15295;42.658;23.374;2023-01-15T13:56:03;19.05;;;11.95;;
27957;SDS011;15295;42.658;23.374;2023-01-15T13:58:32;19.27;;;11.30;;
27957;SDS011;15295;42.658;23.374;2023-01-15T14:03:56;17.77;;;11.05;;
27957;SDS011;15295;42.658;23.374;2023-01-15T14:06:35;25.30;;;13.15;;
27957;SDS011;15295;42.658;23.374;2023-01-15T14:09:48;22.00;;;13.02;;
27957;SDS011;15295;42.658;23.374;2023-01-15T14:15:07;16.52;;;10.27;;
27957;SDS011;15295;42.658;23.374;2023-01-15T14:32:00;24.27;;;13.00;;
27957;SDS011;15295;42.658;23.374;2023-01-15T14:34:31;20.45;;;11.77;;
27957;SDS011;15295;42.658;23.374;2023-01-15T14:37:05;21.10;;;12.25;;
27957;SDS011;15295;42.658;23.374;2023-01-15T14:39:56;21.08;;;12.60;;
27957;SDS011;15295;42.658;23.374;2023-01-15T14:42:25;22.13;;;12.32;;
27957;SDS011;15295;42.658;23.374;2023-01-15T14:47:45;21.08;;;11.95;;
27957;SDS011;15295;42.658;23.374;2023-01-15T14:53:00;23.85;;;13.48;;
27957;SDS011;15295;42.658;23.374;2023-01-15T14:55:52;25.23;;;14.02;;
27957;SDS011;15295;42.658;23.374;2023-01-15T15:00:53;24.23;;;13.50;;
27957;SDS011;15295;42.658;23.374;2023-01-15T15:03:36;24.10;;;13.88;;
27957;SDS011;15295;42.658;23.374;2023-01-15T15:06:06;25.98;;;13.00;;
27957;SDS011;15295;42.658;23.374;2023-01-15T15:08:36;23.25;;;13.25;;
27957;SDS011;15295;42.658;23.374;2023-01-15T15:11:05;24.55;;;14.30;;
27957;SDS011;15295;42.658;23.374;2023-01-15T15:14:00;26.87;;;14.23;;
27957;SDS011;15295;42.658;23.374;2023-01-15T15:16:29;33.55;;;13.95;;
27957;SDS011;15295;42.658;23.374;2023-01-15T15:18:58;27.45;;;14.88;;
27957;SDS011;15295;42.658;23.374;2023-01-15T15:21:28;30.17;;;14.95;;
27957;SDS011;15295;42.658;23.374;2023-01-15T15:26:28;30.55;;;14.82;;
27957;SDS011;15295;42.658;23.374;2023-01-15T15:28:56;27.83;;;14.27;;
27957;SDS011;15295;42.658;23.374;2023-01-15T15:34:27;34.17;;;16.13;;
27957;SDS011;15295;42.658;23.374;2023-01-15T15:36:59;28.50;;;16.60;;
27957;SDS011;15295;42.658;23.374;2023-01-15T15:42:33;33.60;;;17.08;;
27957;SDS011;15295;42.658;23.374;2023-01-15T15:45:24;29.58;;;16.48;;
27957;SDS011;15295;42.658;23.374;2023-01-15T15:48:20;34.33;;;17.00;;
27957;SDS011;15295;42.658;23.374;2023-01-15T16:02:13;33.85;;;18.15;;
27957;SDS011;15295;42.658;23.374;2023-01-15T16:04:52;33.55;;;17.85;;
27957;SDS011;15295;42.658;23.374;2023-01-15T16:07:36;34.22;;;17.70;;
27957;SDS011;15295;42.658;23.374;2023-01-15T16:13:00;31.67;;;17.08;;
27957;SDS011;15295;42.658;23.374;2023-01-15T16:15:32;33.65;;;17.58;;
27957;SDS011;15295;42.658;23.374;2023-01-15T16:18:02;33.78;;;18.20;;
27957;SDS011;15295;42.658;23.374;2023-01-15T16:20:42;34.47;;;17.98;;
27957;SDS011;15295;42.658;23.374;2023-01-15T16:23:18;35.28;;;18.27;;
27957;SDS011;15295;42.658;23.374;2023-01-15T16:25:53;31.83;;;17.73;;
27957;SDS011;15295;42.658;23.374;2023-01-15T16:28:24;37.10;;;18.10;;
27957;SDS011;15295;42.658;23.374;2023-01-15T16:51:53;31.88;;;17.08;;
27957;SDS011;15295;42.658;23.374;2023-01-15T16:58:37;30.75;;;15.63;;
27957;SDS011;15295;42.658;23.374;2023-01-15T17:48:18;38.30;;;19.02;;
27957;SDS011;15295;42.658;23.374;2023-01-15T17:51:02;31.70;;;17.83;;
27957;SDS011;15295;42.658;23.374;2023-01-15T17:53:32;37.65;;;18.42;;
27957;SDS011;15295;42.658;23.374;2023-01-15T17:56:00;36.55;;;19.08;;
27957;SDS011;15295;42.658;23.374;2023-01-15T17:58:44;39.58;;;18.08;;
27957;SDS011;15295;42.658;23.374;2023-01-15T18:01:28;34.72;;;18.23;;
27957;SDS011;15295;42.658;23.374;2023-01-15T18:04:23;35.53;;;18.25;;
27957;SDS011;15295;42.658;23.374;2023-01-15T18:07:14;31.25;;;16.52;;
27957;SDS011;15295;42.658;23.374;2023-01-15T18:09:41;29.85;;;17.88;;
27957;SDS011;15295;42.658;23.374;2023-01-15T18:12:07;35.63;;;18.90;;
27957;SDS011;15295;42.658;23.374;2023-01-15T18:14:33;38.08;;;18.42;;
27957;SDS011;15295;42.658;23.374;2023-01-15T18:17:00;33.63;;;16.92;;
27957;SDS011;15295;42.658;23.374;2023-01-15T18:19:27;33.90;;;17.35;;
27957;SDS011;15295;42.658;23.374;2023-01-15T18:21:55;33.65;;;17.80;;
27957;SDS011;15295;42.658;23.374;2023-01-15T18:35:41;33.97;;;18.13;;
27957;SDS011;15295;42.658;23.374;2023-01-15T18:38:06;36.58;;;18.95;;
27957;SDS011;15295;42.658;23.374;2023-01-15T18:40:32;39.08;;;18.98;;
27957;SDS011;15295;42.658;23.374;2023-01-15T18:42:58;36.97;;;19.13;;
27957;SDS011;15295;42.658;23.374;2023-01-15T18:45:46;35.28;;;19.08;;
27957;SDS011;15295;42.658;23.374;2023-01-15T18:48:34;45.08;;;21.67;;
27957;SDS011;15295;42.658;23.374;2023-01-15T18:51:09;40.58;;;19.17;;
27957;SDS011;15295;42.658;23.374;2023-01-15T18:53:34;44.75;;;20.67;;
27957;SDS011;15295;42.658;23.374;2023-01-15T18:56:01;40.13;;;20.40;;
27957;SDS011;15295;42.658;23.374;2023-01-15T18:58:27;35.88;;;19.08;;
27957;SDS011;15295;42.658;23.374;2023-01-15T19:00:53;39.65;;;19.50;;
27957;SDS011;15295;42.658;23.374;2023-01-15T19:03:18;36.95;;;19.13;;
27957;SDS011;15295;42.658;23.374;2023-01-15T19:05:44;39.40;;;20.02;;
27957;SDS011;15295;42.658;23.374;2023-01-15T19:08:09;39.67;;;19.63;;
27957;SDS011;15295;42.658;23.374;2023-01-15T19:10:35;41.63;;;19.85;;
27957;SDS011;15295;42.658;23.374;2023-01-15T19:13:02;38.67;;;19.20;;
27957;SDS011;15295;42.658;23.374;2023-01-15T19:15:29;39.72;;;21.35;;
27957;SDS011;15295;42.658;23.374;2023-01-15T19:18:14;51.20;;;21.67;;
27957;SDS011;15295;42.658;23.374;2023-01-15T19:21:04;40.40;;;20.65;;
27957;SDS011;15295;42.658;23.374;2023-01-15T19:23:30;40.05;;;21.23;;
27957;SDS011;15295;42.658;23.374;2023-01-15T19:25:56;48.30;;;23.20;;
27957;SDS011;15295;42.658;23.374;2023-01-15T19:28:21;49.13;;;25.35;;